Woodland Park, Colorado
Current Conditions -  °F | °C
As of 7:58 AM on Wednesday 22 Oct 2014 (Local Time) from KAFF Reporting Station
Scattered Clouds Scattered Clouds  
Wind Chill: 42°   Ceiling: Unl
Heat Index: 45°   Visibility: 10mi
Dew Point: 38°   Wind: 6mph
Humidity: 78%   Direction: 30°NNE
Pressure: 30.14"   Gusts: NA
Location:  38.99°N, 105.05°W
Report Text: KAFF 221358Z AUTO 03005KT 10SM SCT085 07/04 A3014 RMK AO2 SLP178 T00720036
Loading
Personal Weather Stations






























Interactive Weather Map New forecast layout! Learn more

10-Day Weather Forecast

Advertisements
Track Severe Weather on mobile